Stockdale, Texas
Current Conditions -  °F | °C
As of 3:07 PM on Thursday 18 Dec 2014 (Local Time) from KRND Reporting Station
Broken Clouds Broken Clouds  
Wind Chill: 64°   Ceiling: 20000
Heat Index: 64°   Visibility: 10mi
Dew Point: 57°   Wind: 8mph
Humidity: 77%   Direction: 50°NE
Pressure: 30.02"   Gusts: NA
Location:  29.24°N, 97.96°W
Report Text: KRND 182107Z 05007KT 10SM SCT013 BKN200 18/14 A3002 RMK AO2A
Loading
Personal Weather Stations






























Interactive Weather Map New forecast layout! Learn more

10-Day Weather Forecast

Advertisements
Track Severe Weather on mobile